createdAt,value
2019-04-23T00:00:29.408Z,13.25
2019-04-23T00:01:35.372Z,13.09
2019-04-23T00:02:30.140Z,13.17
2019-04-23T00:03:36.007Z,13.07
2019-04-23T00:04:28.397Z,12.89
2019-04-23T00:05:48.558Z,12.76
2019-04-23T00:06:32.208Z,12.73
2019-04-23T00:07:44.307Z,12.80
2019-04-23T00:08:41.996Z,12.70
2019-04-23T00:09:36.852Z,12.71
2019-04-23T00:10:53.742Z,12.77
2019-04-23T00:11:32.534Z,12.77
2019-04-23T00:12:47.848Z,12.80
2019-04-23T00:13:39.325Z,12.71
2019-04-23T00:14:38.512Z,12.69
2019-04-23T00:15:30.428Z,12.71
2019-04-23T00:16:39.458Z,12.73
2019-04-23T00:17:40.234Z,12.67
2019-04-23T00:18:42.652Z,12.62
2019-04-23T00:19:31.154Z,12.58
2019-04-23T00:20:34.875Z,12.51
2019-04-23T00:21:33.367Z,12.55
2019-04-23T00:23:49.807Z,12.58
2019-04-23T00:24:56.790Z,12.43
2019-04-23T00:26:50.459Z,12.55
2019-04-23T00:27:38.869Z,12.67
2019-04-23T00:28:35.906Z,12.70
2019-04-23T00:29:37.058Z,12.71
2019-04-23T00:30:43.220Z,12.74
2019-04-23T00:31:41.204Z,12.67
2019-04-23T00:32:35.055Z,12.66
2019-04-23T00:33:34.604Z,12.54
2019-04-23T00:34:42.658Z,12.41
2019-04-23T00:35:38.660Z,12.52
2019-04-23T00:37:37.392Z,12.62
2019-04-23T00:38:38.405Z,12.71
2019-04-23T00:39:41.002Z,12.59
2019-04-23T00:40:40.385Z,12.44
2019-04-23T00:41:36.624Z,12.38
2019-04-23T00:43:00.655Z,12.31
2019-04-23T00:43:34.252Z,12.37
2019-04-23T00:44:40.067Z,12.41
2019-04-23T00:45:40.721Z,12.41
2019-04-23T00:46:34.955Z,12.34
2019-04-23T00:47:51.388Z,12.29
2019-04-23T00:50:04.331Z,12.03
2019-04-23T00:50:44.980Z,12.16
2019-04-23T00:51:38.243Z,12.15
2019-04-23T00:52:50.691Z,12.08
2019-04-23T00:53:34.226Z,12.16
2019-04-23T00:54:46.840Z,12.11
2019-04-23T00:55:35.598Z,11.98
2019-04-23T00:56:57.028Z,12.03
2019-04-23T00:59:41.141Z,11.81
2019-04-23T01:01:47.752Z,11.79
2019-04-23T01:02:37.290Z,12.05
2019-04-23T01:03:37.454Z,12.23
2019-04-23T01:04:41.798Z,12.19
2019-04-23T01:05:37.718Z,12.30
2019-04-23T01:06:39.349Z,12.18
2019-04-23T01:07:40.337Z,12.13
2019-04-23T01:08:36.871Z,12.16
2019-04-23T01:09:42.263Z,12.03
2019-04-23T01:10:34.900Z,12.04
2019-04-23T01:11:34.211Z,12.04
2019-04-23T01:14:38.581Z,11.96
2019-04-23T01:15:39.111Z,11.88
2019-04-23T01:16:38.114Z,11.88
2019-04-23T01:17:39.946Z,11.93
2019-04-23T01:18:49.093Z,11.78
2019-04-23T01:19:37.486Z,11.75
2019-04-23T01:20:36.571Z,11.74
2019-04-23T01:21:18.029Z,11.70
2019-04-23T01:22:16.927Z,11.57
2019-04-23T01:23:20.652Z,11.53
2019-04-23T01:24:20.131Z,11.69
2019-04-23T01:25:24.773Z,11.64
2019-04-23T01:26:39.079Z,12.04
2019-04-23T01:27:57.232Z,12.05
2019-04-23T01:28:50.278Z,11.93
2019-04-23T01:29:42.510Z,11.88
2019-04-23T01:30:40.507Z,11.90
2019-04-23T01:31:43.091Z,12.04
2019-04-23T01:32:44.048Z,11.98
2019-04-23T01:33:44.696Z,11.96
2019-04-23T01:34:51.958Z,12.16
2019-04-23T01:35:42.494Z,12.43
2019-04-23T01:36:37.231Z,12.48
2019-04-23T01:37:41.088Z,12.54
2019-04-23T01:38:45.541Z,12.59
2019-04-23T01:39:43.892Z,12.73
2019-04-23T01:40:40.611Z,12.63
2019-04-23T01:41:47.823Z,12.41
2019-04-23T01:43:44.351Z,12.54
2019-04-23T01:45:35.916Z,12.59
2019-04-23T01:47:45.373Z,12.51
2019-04-23T01:48:48.190Z,12.46
2019-04-23T01:49:56.532Z,12.71
2019-04-23T01:50:48.375Z,12.62
2019-04-23T01:51:46.801Z,12.69
2019-04-23T01:52:52.165Z,12.71
2019-04-23T01:53:45.489Z,12.63
2019-04-23T01:54:45.549Z,12.54
2019-04-23T01:55:46.999Z,12.56
2019-04-23T01:56:38.584Z,12.59
2019-04-23T01:58:51.874Z,12.31
2019-04-23T01:59:49.772Z,12.19
2019-04-23T02:00:49.423Z,12.31
2019-04-23T02:01:51.865Z,12.18
2019-04-23T02:02:49.600Z,12.21
2019-04-23T02:03:52.247Z,12.30
2019-04-23T02:04:46.117Z,12.49
2019-04-23T02:06:45.460Z,12.54
2019-04-23T02:07:53.711Z,12.44
2019-04-23T02:08:48.519Z,12.43
2019-04-23T02:09:53.188Z,12.30
2019-04-23T02:10:51.253Z,12.38
2019-04-23T02:11:43.829Z,12.49
2019-04-23T02:12:47.719Z,12.51
2019-04-23T02:13:48.987Z,12.33
2019-04-23T02:14:51.767Z,12.21
2019-04-23T02:16:44.107Z,12.11
2019-04-23T02:17:52.114Z,12.36
2019-04-23T02:18:49.318Z,12.61
2019-04-23T02:20:48.078Z,12.46
2019-04-23T02:21:54.821Z,12.55
2019-04-23T02:23:44.023Z,12.63
2019-04-23T02:24:47.696Z,12.63
2019-04-23T02:26:43.453Z,12.62
2019-04-23T02:27:52.248Z,12.67
2019-04-23T02:30:20.701Z,12.55
2019-04-23T02:31:58.193Z,12.33
2019-04-23T02:32:59.463Z,12.40
2019-04-23T02:35:02.341Z,12.41
2019-04-23T02:38:00.323Z,12.54
2019-04-23T02:40:01.021Z,12.31
2019-04-23T02:43:59.292Z,12.31
2019-04-23T02:44:56.346Z,12.26
2019-04-23T02:46:59.330Z,12.30
2019-04-23T02:48:01.511Z,12.22
2019-04-23T02:48:58.272Z,12.18
2019-04-23T02:50:33.632Z,11.78
2019-04-23T02:52:57.793Z,11.67
2019-04-23T02:56:51.478Z,12.01
2019-04-23T02:58:01.868Z,11.87
2019-04-23T03:02:12.009Z,11.38
2019-04-23T03:04:02.360Z,11.49
2019-04-23T03:05:57.264Z,11.60
2019-04-23T03:07:16.032Z,11.59
2019-04-23T03:07:54.237Z,11.74
2019-04-23T03:12:00.698Z,11.67
2019-04-23T03:13:19.800Z,11.67
2019-04-23T03:15:05.101Z,11.45
2019-04-23T03:17:03.053Z,11.45
2019-04-23T03:18:12.203Z,11.57
2019-04-23T03:19:58.578Z,11.46
2019-04-23T03:21:11.636Z,11.23
2019-04-23T03:26:00.191Z,10.99
2019-04-23T03:28:11.714Z,10.98
2019-04-23T03:29:04.297Z,10.91
2019-04-23T03:32:30.841Z,10.80
2019-04-23T03:37:55.774Z,11.26
2019-04-23T03:41:09.125Z,11.44
2019-04-23T03:42:24.415Z,11.39
2019-04-23T03:43:47.086Z,11.46
2019-04-23T03:46:12.141Z,10.93
2019-04-23T03:46:51.415Z,10.78
2019-04-23T03:48:00.804Z,10.88
2019-04-23T03:48:51.204Z,10.80
2019-04-23T03:50:58.206Z,10.73
2019-04-23T03:52:01.223Z,10.75
2019-04-23T03:52:57.639Z,10.68
2019-04-23T03:54:05.840Z,10.73
2019-04-23T03:54:49.046Z,10.73
2019-04-23T03:56:05.600Z,10.60
2019-04-23T03:57:52.602Z,10.57
2019-04-23T03:58:58.188Z,10.54
2019-04-23T04:00:04.021Z,10.42
2019-04-23T04:01:01.401Z,10.43
2019-04-23T04:04:49.858Z,10.32
2019-04-23T04:09:08.517Z,10.29
2019-04-23T04:09:53.875Z,10.35
2019-04-23T04:12:00.982Z,10.16
2019-04-23T04:12:56.899Z,10.24
2019-04-23T04:16:07.464Z,10.17
2019-04-23T04:16:59.862Z,10.06
2019-04-23T04:18:11.676Z,10.16
2019-04-23T04:21:08.750Z,10.16
2019-04-23T04:22:15.104Z,10.04
2019-04-23T04:23:07.887Z,10.13
2019-04-23T04:25:03.256Z,10.14
2019-04-23T04:26:00.288Z,10.10
2019-04-23T04:29:01.244Z,10.13
2019-04-23T04:30:01.646Z,10.24
2019-04-23T04:30:53.746Z,10.17
2019-04-23T04:36:10.297Z,10.01
2019-04-23T04:37:27.650Z,10.06
2019-04-23T04:38:05.725Z,10.06
2019-04-23T04:40:23.259Z,10.11
2019-04-23T04:41:04.286Z,10.14
2019-04-23T04:41:58.827Z,10.09
2019-04-23T04:46:59.181Z,10.34
2019-04-23T04:47:53.986Z,10.66
2019-04-23T04:51:07.983Z,10.38
2019-04-23T04:55:03.279Z,10.35
2019-04-23T04:56:14.281Z,10.29
2019-04-23T04:57:04.987Z,10.36
2019-04-23T04:57:58.148Z,10.46
2019-04-23T05:00:45.653Z,10.32
2019-04-23T05:02:09.669Z,10.32
2019-04-23T05:04:02.421Z,10.25
2019-04-23T05:07:22.880Z,10.29
2019-04-23T05:09:00.753Z,10.25
2019-04-23T05:10:08.797Z,10.20
2019-04-23T05:11:10.862Z,10.17
2019-04-23T05:13:21.370Z,10.17
2019-04-23T05:14:01.352Z,10.16
2019-04-23T05:15:02.680Z,10.14
2019-04-23T05:16:02.916Z,10.09
2019-04-23T05:17:19.829Z,10.24
2019-04-23T05:18:08.393Z,10.18
2019-04-23T05:19:20.071Z,10.22
2019-04-23T05:19:58.952Z,10.20
2019-04-23T05:21:08.107Z,10.13
2019-04-23T05:23:09.153Z,10.22
2019-04-23T05:24:06.685Z,10.24
2019-04-23T05:24:52.812Z,10.18
2019-04-23T05:26:02.801Z,10.18
2019-04-23T05:26:57.957Z,10.14
2019-04-23T05:28:07.697Z,10.22
2019-04-23T05:29:01.725Z,10.18
2019-04-23T05:30:02.213Z,10.32
2019-04-23T05:31:02.311Z,10.32
2019-04-23T05:31:53.530Z,10.32
2019-04-23T05:33:08.827Z,10.31
2019-04-23T05:34:02.965Z,10.36
2019-04-23T05:34:56.130Z,10.42
2019-04-23T05:36:12.786Z,10.29
2019-04-23T05:37:00.171Z,10.36
2019-04-23T05:38:08.856Z,10.32
2019-04-23T05:40:00.438Z,10.38
2019-04-23T05:41:03.714Z,10.42
2019-04-23T05:42:13.997Z,10.38
2019-04-23T05:42:58.726Z,10.51
2019-04-23T05:44:05.215Z,10.52
2019-04-23T05:45:00.827Z,10.57
2019-04-23T05:45:56.876Z,10.58
2019-04-23T05:47:06.312Z,10.54
2019-04-23T05:48:09.704Z,10.51
2019-04-23T05:49:04.556Z,10.44
2019-04-23T05:50:00.430Z,10.55
2019-04-23T05:51:09.642Z,10.69
2019-04-23T05:52:59.757Z,10.70
2019-04-23T05:53:58.397Z,10.81
2019-04-23T05:55:02.678Z,10.84
2019-04-23T05:56:01.973Z,10.86
2019-04-23T05:56:55.076Z,10.83
2019-04-23T05:58:06.435Z,10.88
2019-04-23T05:59:11.562Z,11.03
2019-04-23T06:00:04.226Z,10.98
2019-04-23T06:01:11.409Z,10.95
2019-04-23T06:01:58.627Z,10.98
2019-04-23T06:03:06.345Z,11.19
2019-04-23T06:04:57.342Z,11.53
2019-04-23T06:06:02.969Z,11.70
2019-04-23T06:08:03.443Z,11.98
2019-04-23T06:08:58.628Z,12.11
2019-04-23T06:09:59.455Z,12.12
2019-04-23T06:11:02.325Z,12.25
2019-04-23T06:12:59.681Z,12.33
2019-04-23T06:14:05.175Z,12.29
2019-04-23T06:15:01.652Z,12.36
2019-04-23T06:15:57.705Z,12.37
2019-04-23T06:17:03.179Z,12.51
2019-04-23T06:20:06.689Z,12.49
2019-04-23T06:21:15.646Z,12.58
2019-04-23T06:22:07.476Z,12.59
2019-04-23T06:23:06.388Z,12.73
2019-04-23T06:24:13.114Z,12.67
2019-04-23T06:25:03.357Z,12.69
2019-04-23T06:26:19.773Z,12.67
2019-04-23T06:28:05.094Z,12.73
2019-04-23T06:29:05.017Z,12.79
2019-04-23T06:30:23.896Z,12.85
2019-04-23T06:31:04.996Z,12.94
2019-04-23T06:32:14.927Z,12.95
2019-04-23T06:32:59.644Z,12.91
2019-04-23T06:34:04.196Z,12.87
2019-04-23T06:35:01.494Z,12.96
2019-04-23T06:36:05.497Z,12.98
2019-04-23T06:37:06.870Z,13.09
2019-04-23T06:38:26.137Z,13.01
2019-04-23T06:40:00.387Z,13.10
2019-04-23T06:41:00.799Z,13.24
2019-04-23T06:42:00.454Z,13.31
2019-04-23T06:43:05.361Z,13.43
2019-04-23T06:44:05.823Z,13.50
2019-04-23T06:45:02.954Z,13.55
2019-04-23T06:45:59.080Z,13.68
2019-04-23T06:47:03.711Z,13.54
2019-04-23T06:48:09.179Z,13.71
2019-04-23T06:49:00.849Z,13.76
2019-04-23T06:50:00.131Z,13.66
2019-04-23T06:51:04.254Z,13.63
2019-04-23T06:52:08.632Z,13.68
2019-04-23T06:52:57.211Z,13.69
2019-04-23T06:55:01.155Z,13.66
2019-04-23T06:56:03.867Z,13.75
2019-04-23T06:57:14.604Z,13.68
2019-04-23T06:58:04.490Z,13.68
2019-04-23T06:59:06.368Z,13.66
2019-04-23T07:00:02.398Z,13.80
2019-04-23T07:01:02.079Z,13.79
2019-04-23T07:02:06.658Z,13.83
2019-04-23T07:03:10.828Z,13.88
2019-04-23T07:04:05.467Z,13.88
2019-04-23T07:07:24.141Z,13.93
2019-04-23T07:08:02.788Z,13.86
2019-04-23T07:09:10.724Z,13.84
2019-04-23T07:09:59.377Z,13.93
2019-04-23T07:11:07.890Z,13.98
2019-04-23T07:11:55.535Z,14.11
2019-04-23T07:13:08.889Z,14.20
2019-04-23T07:15:04.472Z,14.08
2019-04-23T07:16:03.189Z,14.08
2019-04-23T07:17:04.189Z,14.04
2019-04-23T07:18:05.806Z,14.17
2019-04-23T07:20:00.242Z,14.36
2019-04-23T07:21:09.453Z,14.42
2019-04-23T07:22:16.400Z,14.41
2019-04-23T07:23:10.195Z,14.42
2019-04-23T07:24:05.211Z,14.56
2019-04-23T07:26:08.075Z,14.53
2019-04-23T07:27:03.310Z,14.54
2019-04-23T07:28:06.890Z,14.56
2019-04-23T07:29:08.971Z,14.49
2019-04-23T07:30:08.684Z,14.57
2019-04-23T07:31:07.345Z,14.57
2019-04-23T07:33:04.524Z,14.53
2019-04-23T07:34:20.428Z,14.42
2019-04-23T07:35:07.232Z,14.24
2019-04-23T07:36:08.580Z,14.41
2019-04-23T07:37:06.950Z,14.36
2019-04-23T07:38:16.363Z,14.49
2019-04-23T07:39:11.638Z,14.49
2019-04-23T07:41:15.327Z,14.48
2019-04-23T07:42:08.108Z,14.53
2019-04-23T07:44:16.669Z,14.53
2019-04-23T07:46:10.547Z,14.60
2019-04-23T07:47:16.193Z,14.78
2019-04-23T07:48:10.854Z,14.74
2019-04-23T07:49:04.618Z,14.90
2019-04-23T07:50:19.092Z,14.93
2019-04-23T07:51:03.339Z,15.03
2019-04-23T07:54:08.064Z,15.03
2019-04-23T07:55:16.326Z,14.98
2019-04-23T07:56:07.502Z,14.93
2019-04-23T07:57:13.488Z,15.00
2019-04-23T07:58:14.294Z,14.91
2019-04-23T07:59:16.049Z,15.04
2019-04-23T08:00:29.707Z,15.12
2019-04-23T08:01:11.264Z,15.13
2019-04-23T08:02:15.915Z,15.09
2019-04-23T08:03:13.560Z,15.04
2019-04-23T08:04:30.188Z,15.15
2019-04-23T08:05:21.595Z,15.28
2019-04-23T08:06:04.230Z,15.11
2019-04-23T08:07:12.834Z,15.07
2019-04-23T08:08:07.286Z,15.13
2019-04-23T08:09:08.549Z,15.25
2019-04-23T08:10:10.394Z,15.23
2019-04-23T08:11:30.471Z,15.23
2019-04-23T08:12:13.690Z,15.28
2019-04-23T08:13:10.336Z,15.12
2019-04-23T08:14:05.172Z,15.12
2019-04-23T08:15:13.082Z,15.30
2019-04-23T08:16:19.152Z,15.31
2019-04-23T08:17:07.395Z,15.31
2019-04-23T08:18:08.893Z,15.44
2019-04-23T08:19:24.555Z,15.35
2019-04-23T08:20:07.860Z,15.53
2019-04-23T08:21:10.448Z,15.46
2019-04-23T08:22:09.174Z,15.37
2019-04-23T08:23:12.532Z,15.52
2019-04-23T08:24:17.011Z,15.48
2019-04-23T08:25:27.249Z,15.56
2019-04-23T08:26:13.598Z,15.53
2019-04-23T08:27:16.629Z,15.70
2019-04-23T08:28:13.551Z,15.73
2019-04-23T08:29:12.280Z,15.86
2019-04-23T08:30:04.532Z,15.93
2019-04-23T08:34:18.642Z,15.92
2019-04-23T08:36:12.239Z,15.89
2019-04-23T08:37:08.902Z,15.99
2019-04-23T08:39:11.539Z,15.92
2019-04-23T08:40:20.176Z,15.93
2019-04-23T08:41:20.644Z,15.99
2019-04-23T08:42:27.055Z,15.98
2019-04-23T08:44:15.582Z,15.89
2019-04-23T08:45:18.709Z,15.89
2019-04-23T08:46:13.990Z,15.86
2019-04-23T08:47:10.099Z,15.93
2019-04-23T08:49:13.977Z,15.88
2019-04-23T08:50:06.812Z,16.18
2019-04-23T08:51:22.325Z,16.26
2019-04-23T08:52:11.791Z,16.08
2019-04-23T08:53:26.369Z,16.22
2019-04-23T08:54:13.300Z,16.34
2019-04-23T08:55:08.675Z,16.29
2019-04-23T08:56:10.639Z,16.16
2019-04-23T08:57:22.706Z,16.06
2019-04-23T08:58:14.101Z,15.89
2019-04-23T08:59:22.896Z,15.96
2019-04-23T09:00:07.827Z,16.16
2019-04-23T09:01:10.830Z,16.17
2019-04-23T09:02:25.564Z,16.29
2019-04-23T09:04:10.614Z,16.14
2019-04-23T09:05:20.802Z,16.34
2019-04-23T09:06:25.844Z,16.47
2019-04-23T09:07:16.719Z,16.47
2019-04-23T09:09:13.233Z,16.37
2019-04-23T09:10:15.345Z,16.57
2019-04-23T09:12:18.866Z,16.32
2019-04-23T09:13:35.291Z,16.57
2019-04-23T09:14:05.210Z,16.67
2019-04-23T09:15:16.810Z,17.17
2019-04-23T09:16:09.011Z,17.05
2019-04-23T09:17:17.201Z,17.06
2019-04-23T09:19:16.036Z,17.25
2019-04-23T09:22:25.141Z,17.55
2019-04-23T09:23:13.306Z,17.47
2019-04-23T09:24:09.591Z,17.58
2019-04-23T09:25:20.300Z,17.55
2019-04-23T09:26:22.742Z,17.65
2019-04-23T09:27:18.143Z,17.58
2019-04-23T09:28:24.017Z,17.63
2019-04-23T09:29:14.795Z,17.55
2019-04-23T09:30:12.600Z,17.35
2019-04-23T09:32:22.422Z,17.53
2019-04-23T09:33:14.063Z,17.76
2019-04-23T09:34:11.439Z,17.87
2019-04-23T09:35:20.229Z,18.10
2019-04-23T09:36:13.579Z,18.23
2019-04-23T09:37:18.843Z,18.20
2019-04-23T09:38:11.705Z,18.34
2019-04-23T09:39:12.897Z,18.42
2019-04-23T09:40:27.597Z,18.44
2019-04-23T09:42:16.156Z,18.62
2019-04-23T09:43:14.145Z,18.39
2019-04-23T09:44:39.118Z,18.49
2019-04-23T09:45:12.996Z,18.56
2019-04-23T09:46:17.435Z,18.82
2019-04-23T09:47:16.024Z,18.86
2019-04-23T09:48:04.937Z,18.86
2019-04-23T09:49:36.207Z,18.78
2019-04-23T09:50:15.675Z,18.65
2019-04-23T09:51:17.903Z,18.60
2019-04-23T09:52:14.603Z,18.71
2019-04-23T09:55:24.486Z,18.50
2019-04-23T09:56:14.847Z,18.72
2019-04-23T09:57:14.060Z,18.59
2019-04-23T09:58:11.868Z,18.47
2019-04-23T09:59:32.341Z,18.60
2019-04-23T10:00:23.074Z,18.74
2019-04-23T10:01:20.912Z,18.49
2019-04-23T10:02:06.620Z,18.82
2019-04-23T10:03:02.402Z,19.09
2019-04-23T10:04:00.048Z,19.30
2019-04-23T10:04:59.567Z,19.27
2019-04-23T10:05:57.152Z,19.17
2019-04-23T10:07:03.249Z,18.72
2019-04-23T10:07:58.631Z,18.69
2019-04-23T10:08:51.921Z,18.99
2019-04-23T10:09:48.367Z,19.10
2019-04-23T10:10:47.286Z,19.34
2019-04-23T10:11:47.330Z,19.20
2019-04-23T10:12:48.213Z,19.21
2019-04-23T10:13:48.382Z,19.35
2019-04-23T10:14:59.267Z,19.39
2019-04-23T10:15:49.666Z,19.46
2019-04-23T10:16:49.242Z,19.83
2019-04-23T10:17:47.692Z,19.57
2019-04-23T10:18:49.123Z,19.39
2019-04-23T10:19:48.669Z,19.40
2019-04-23T10:20:48.737Z,19.45
2019-04-23T10:21:49.190Z,19.39
2019-04-23T10:22:48.321Z,19.39
2019-04-23T10:23:49.564Z,19.76
2019-04-23T10:24:48.792Z,19.64
2019-04-23T10:25:48.189Z,19.95
2019-04-23T10:26:48.253Z,20.01
2019-04-23T10:27:55.075Z,19.80
2019-04-23T10:28:49.808Z,19.80
2019-04-23T10:29:49.849Z,19.79
2019-04-23T10:30:49.016Z,19.68
2019-04-23T10:31:49.460Z,19.79
2019-04-23T10:32:49.492Z,19.97
2019-04-23T10:33:50.284Z,19.98
2019-04-23T10:34:57.832Z,20.20
2019-04-23T10:35:55.109Z,20.13
2019-04-23T10:36:49.525Z,20.46
2019-04-23T10:37:56.855Z,20.72
2019-04-23T10:38:55.885Z,20.90
2019-04-23T10:39:54.855Z,20.96
2019-04-23T10:40:50.158Z,20.93
2019-04-23T10:41:50.969Z,20.97
2019-04-23T10:42:51.491Z,20.93
2019-04-23T10:43:52.368Z,20.87
2019-04-23T10:44:52.117Z,21.08
2019-04-23T10:46:07.975Z,21.19
2019-04-23T10:47:15.174Z,21.11
2019-04-23T10:49:32.135Z,21.30
2019-04-23T10:50:17.274Z,21.34
2019-04-23T10:51:25.054Z,21.58
2019-04-23T10:54:26.294Z,21.83
2019-04-23T10:55:11.861Z,22.04
2019-04-23T10:56:20.733Z,22.15
2019-04-23T10:57:33.911Z,22.14
2019-04-23T10:59:19.850Z,22.24
2019-04-23T11:00:22.314Z,21.96
2019-04-23T11:01:20.856Z,21.86
2019-04-23T11:02:32.876Z,21.64
2019-04-23T11:03:38.167Z,21.08
2019-04-23T11:04:38.505Z,21.09
2019-04-23T11:05:35.530Z,21.24
2019-04-23T11:06:28.771Z,21.71
2019-04-23T11:07:28.558Z,21.73
2019-04-23T11:08:18.291Z,22.02
2019-04-23T11:09:36.594Z,22.35
2019-04-23T11:10:16.088Z,22.60
2019-04-23T11:11:24.041Z,23.12
2019-04-23T11:12:32.492Z,23.39
2019-04-23T11:13:25.635Z,23.32
2019-04-23T11:14:25.586Z,23.38
2019-04-23T11:15:32.465Z,23.35
2019-04-23T11:17:31.967Z,23.63
2019-04-23T11:18:34.103Z,24.26
2019-04-23T11:19:27.646Z,24.84
2019-04-23T11:20:35.371Z,25.02
2019-04-23T11:22:40.275Z,24.67
2019-04-23T11:23:17.030Z,24.39
2019-04-23T11:24:30.490Z,24.56
2019-04-23T11:25:33.106Z,24.08
2019-04-23T11:26:26.424Z,24.29
2019-04-23T11:27:25.973Z,23.92
2019-04-23T11:28:25.792Z,23.34
2019-04-23T11:29:27.972Z,22.88
2019-04-23T11:31:31.561Z,23.62
2019-04-23T11:32:42.855Z,23.47
2019-04-23T11:33:19.894Z,23.69
2019-04-23T11:34:46.006Z,23.42
2019-04-23T11:37:37.967Z,22.69
2019-04-23T11:39:21.697Z,22.30
2019-04-23T11:40:31.317Z,22.36
2019-04-23T11:41:31.007Z,22.97
2019-04-23T11:43:34.237Z,23.12
2019-04-23T11:44:26.957Z,23.12
2019-04-23T11:45:32.510Z,23.41
2019-04-23T11:46:39.901Z,23.67
2019-04-23T11:48:00.451Z,23.47
2019-04-23T11:49:51.049Z,23.92
2019-04-23T11:50:28.117Z,23.68
2019-04-23T11:52:30.090Z,23.47
2019-04-23T11:53:26.063Z,23.84
2019-04-23T11:54:27.766Z,23.75
2019-04-23T11:55:35.789Z,24.18
2019-04-23T11:56:49.211Z,24.12
2019-04-23T11:59:31.651Z,24.34
2019-04-23T12:00:26.211Z,24.08
2019-04-23T12:02:23.449Z,23.99
2019-04-23T12:03:19.398Z,23.99
2019-04-23T12:05:26.587Z,23.89
2019-04-23T12:07:22.831Z,24.00
2019-04-23T12:08:36.512Z,23.92
2019-04-23T12:09:35.288Z,24.31
2019-04-23T12:10:29.069Z,24.51
2019-04-23T12:11:48.976Z,24.46
2019-04-23T12:12:25.081Z,24.42
2019-04-23T12:13:32.185Z,24.56
2019-04-23T12:14:37.177Z,24.60
2019-04-23T12:16:28.504Z,24.30
2019-04-23T12:20:28.919Z,23.03
2019-04-23T12:21:32.419Z,23.39
2019-04-23T12:24:53.617Z,23.41
2019-04-23T12:25:27.894Z,23.79
2019-04-23T12:26:40.777Z,24.19
2019-04-23T12:28:36.570Z,24.63
2019-04-23T12:29:33.905Z,24.74
2019-04-23T12:31:29.264Z,24.48
2019-04-23T12:33:39.126Z,24.87
2019-04-23T12:34:30.053Z,24.83
2019-04-23T12:35:25.691Z,25.05
2019-04-23T12:36:28.199Z,25.04
2019-04-23T12:37:33.388Z,24.31
2019-04-23T12:39:27.116Z,24.46
2019-04-23T12:41:29.859Z,24.90
2019-04-23T12:43:27.480Z,25.54
2019-04-23T12:44:30.654Z,26.17
2019-04-23T12:45:31.712Z,26.36
2019-04-23T12:46:29.670Z,26.54
2019-04-23T12:47:43.651Z,26.69
2019-04-23T12:48:33.731Z,27.24
2019-04-23T12:49:47.952Z,26.96
2019-04-23T12:51:34.997Z,24.52
2019-04-23T12:52:36.000Z,24.02
2019-04-23T12:53:30.626Z,23.84
2019-04-23T12:54:47.078Z,24.08
2019-04-23T12:55:41.910Z,24.05
2019-04-23T12:56:21.927Z,24.59
2019-04-23T12:57:29.666Z,24.37
2019-04-23T12:58:26.721Z,24.30
2019-04-23T12:59:28.653Z,24.68
2019-04-23T13:00:27.135Z,24.93
2019-04-23T13:01:37.791Z,24.82
2019-04-23T13:02:41.181Z,24.87
2019-04-23T13:04:24.872Z,25.08
2019-04-23T13:06:20.424Z,26.21
2019-04-23T13:07:36.729Z,26.59
2019-04-23T13:08:33.242Z,27.01
2019-04-23T13:09:42.919Z,27.30
2019-04-23T13:10:30.053Z,27.45
2019-04-23T13:11:32.994Z,28.06
2019-04-23T13:12:38.185Z,28.05
2019-04-23T13:13:27.986Z,27.71
2019-04-23T13:14:34.757Z,27.78
2019-04-23T13:17:42.581Z,26.98
2019-04-23T13:19:40.156Z,27.53
2019-04-23T13:20:28.041Z,27.93
2019-04-23T13:21:52.182Z,27.58
2019-04-23T13:22:37.431Z,27.96
2019-04-23T13:24:26.479Z,27.39
2019-04-23T13:25:34.813Z,26.88
2019-04-23T13:26:27.978Z,27.03
2019-04-23T13:27:38.638Z,26.84
2019-04-23T13:28:28.127Z,26.42
2019-04-23T13:29:41.017Z,26.44
2019-04-23T13:30:44.730Z,26.19
2019-04-23T13:31:20.449Z,26.56
2019-04-23T13:32:31.371Z,26.08
2019-04-23T13:33:35.494Z,26.38
2019-04-23T13:34:37.613Z,26.75
2019-04-23T13:36:32.470Z,27.11
2019-04-23T13:37:40.456Z,27.16
2019-04-23T13:38:36.312Z,26.39
2019-04-23T13:39:34.813Z,26.56
2019-04-23T13:40:47.522Z,26.57
2019-04-23T13:41:30.189Z,26.23
2019-04-23T13:43:36.256Z,25.85
2019-04-23T13:44:34.370Z,25.24
2019-04-23T13:46:32.936Z,25.46
2019-04-23T13:47:41.431Z,25.35
2019-04-23T13:48:19.930Z,25.75
2019-04-23T13:49:37.754Z,25.79
2019-04-23T13:55:00.027Z,26.75
2019-04-23T13:55:26.681Z,26.16
2019-04-23T13:56:39.261Z,26.01
2019-04-23T13:58:02.313Z,25.91
2019-04-23T13:58:28.361Z,25.61
2019-04-23T13:59:42.906Z,25.17
2019-04-23T14:01:35.445Z,24.64
2019-04-23T14:02:40.385Z,24.75
2019-04-23T14:03:35.765Z,24.87
2019-04-23T14:04:41.690Z,24.92
2019-04-23T14:05:33.104Z,24.77
2019-04-23T14:07:44.135Z,24.92
2019-04-23T14:10:44.860Z,25.38
2019-04-23T14:12:43.717Z,25.51
2019-04-23T14:14:42.129Z,24.79
2019-04-23T14:15:40.543Z,25.22
2019-04-23T14:16:39.702Z,25.75
2019-04-23T14:18:53.892Z,25.38
2019-04-23T14:19:28.092Z,25.76
2019-04-23T14:21:35.281Z,25.76
2019-04-23T14:22:51.242Z,25.66
2019-04-23T14:23:59.447Z,25.93
2019-04-23T14:24:38.231Z,25.98
2019-04-23T14:25:40.093Z,26.09
2019-04-23T14:26:35.186Z,26.01
2019-04-23T14:28:37.353Z,26.09
2019-04-23T14:29:41.418Z,26.31
2019-04-23T14:30:38.537Z,26.29
2019-04-23T14:31:28.524Z,26.69
2019-04-23T14:33:46.049Z,26.98
2019-04-23T14:34:40.845Z,27.61
2019-04-23T14:35:32.529Z,27.53
2019-04-23T14:36:39.694Z,27.84
2019-04-23T14:37:38.193Z,27.13
2019-04-23T14:39:31.739Z,26.11
2019-04-23T14:40:43.167Z,25.97
2019-04-23T14:41:26.401Z,26.04
2019-04-23T14:42:49.782Z,26.23
2019-04-23T14:44:36.548Z,26.32
2019-04-23T14:46:41.411Z,26.34
2019-04-23T14:47:38.022Z,25.64
2019-04-23T14:48:30.717Z,25.86
2019-04-23T14:52:39.061Z,25.74
2019-04-23T14:53:30.352Z,25.66
2019-04-23T14:54:52.499Z,25.90
2019-04-23T14:56:35.049Z,26.28
2019-04-23T14:57:45.173Z,26.01
2019-04-23T14:58:57.561Z,26.00
2019-04-23T14:59:30.727Z,25.86
2019-04-23T15:00:46.469Z,25.76
2019-04-23T15:01:35.512Z,25.63
2019-04-23T15:02:44.928Z,25.36
2019-04-23T15:03:40.346Z,25.36
2019-04-23T15:04:39.362Z,25.22
2019-04-23T15:05:45.974Z,25.22
2019-04-23T15:06:46.832Z,25.53
2019-04-23T15:07:36.972Z,25.39
2019-04-23T15:08:50.082Z,25.31
2019-04-23T15:09:52.789Z,25.09
2019-04-23T15:10:49.195Z,25.27
2019-04-23T15:11:35.412Z,25.39
2019-04-23T15:12:40.359Z,25.54
2019-04-23T15:13:38.581Z,25.44
2019-04-23T15:14:46.349Z,25.30
2019-04-23T15:15:31.868Z,25.67
2019-04-23T15:16:39.787Z,25.83
2019-04-23T15:17:34.679Z,25.30
2019-04-23T15:18:45.196Z,25.05
2019-04-23T15:20:39.270Z,24.92
2019-04-23T15:22:42.411Z,24.80
2019-04-23T15:24:38.447Z,24.45
2019-04-23T15:25:53.152Z,24.74
2019-04-23T15:26:58.870Z,25.09
2019-04-23T15:27:45.675Z,24.61
2019-04-23T15:28:14.208Z,24.66
2019-04-23T15:29:26.731Z,24.30
2019-04-23T15:30:38.759Z,24.21
2019-04-23T15:32:47.161Z,24.27
2019-04-23T15:33:44.955Z,24.26
2019-04-23T15:34:33.005Z,24.41
2019-04-23T15:35:53.357Z,24.42
2019-04-23T15:37:01.069Z,24.27
2019-04-23T15:38:43.452Z,23.71
2019-04-23T15:40:36.814Z,24.00
2019-04-23T15:42:00.829Z,23.87
2019-04-23T15:42:43.930Z,23.71
2019-04-23T15:43:46.798Z,23.87
2019-04-23T15:44:32.355Z,24.02
2019-04-23T15:45:42.373Z,23.77
2019-04-23T15:47:39.851Z,23.47
2019-04-23T15:48:46.440Z,23.45
2019-04-23T15:49:37.691Z,23.38
2019-04-23T15:50:37.203Z,23.31
2019-04-23T15:51:48.022Z,23.62
2019-04-23T15:52:44.307Z,23.78
2019-04-23T15:53:34.837Z,23.99
2019-04-23T15:54:56.792Z,23.99
2019-04-23T15:55:44.172Z,23.90
2019-04-23T15:58:48.569Z,23.77
2019-04-23T15:59:44.144Z,23.68
2019-04-23T16:00:39.727Z,23.42
2019-04-23T16:02:10.489Z,23.26
2019-04-23T16:03:12.904Z,23.29
2019-04-23T16:04:13.133Z,23.31
2019-04-23T16:05:12.508Z,23.11
2019-04-23T16:06:13.485Z,23.03
2019-04-23T16:07:16.884Z,23.12
2019-04-23T16:08:45.838Z,23.07
2019-04-23T16:09:37.123Z,23.00
2019-04-23T16:10:45.870Z,22.88
2019-04-23T16:11:47.804Z,23.06
2019-04-23T16:12:50.715Z,23.14
2019-04-23T16:13:53.372Z,23.31
2019-04-23T16:14:42.436Z,23.16
2019-04-23T16:15:43.377Z,23.12
2019-04-23T16:16:46.298Z,23.12
2019-04-23T16:17:46.932Z,23.03
2019-04-23T16:18:44.709Z,22.84
2019-04-23T16:19:45.884Z,22.89
2019-04-23T16:20:46.991Z,22.96